createdAt,value
2019-01-15T00:00:47.269Z,0
2019-01-15T00:01:47.681Z,0
2019-01-15T00:02:48.651Z,0
2019-01-15T00:03:48.787Z,0
2019-01-15T00:04:49.479Z,0
2019-01-15T00:05:50.330Z,0
2019-01-15T00:06:51.299Z,0
2019-01-15T00:07:52.269Z,0
2019-01-15T00:08:53.514Z,0
2019-01-15T00:09:53.934Z,0
2019-01-15T00:10:54.955Z,0
2019-01-15T00:11:55.927Z,0
2019-01-15T00:12:56.624Z,0
2019-01-15T00:13:57.872Z,0
2019-01-15T00:14:58.565Z,0
2019-01-15T00:15:58.688Z,0
2019-01-15T00:16:59.384Z,0
2019-01-15T00:17:59.800Z,0
2019-01-15T00:18:59.936Z,0
2019-01-15T00:20:01.840Z,0
2019-01-15T00:21:02.808Z,0
2019-01-15T00:22:03.498Z,0
2019-01-15T00:23:04.192Z,0
2019-01-15T00:24:04.607Z,0
2019-01-15T00:25:05.022Z,0
2019-01-15T00:26:05.608Z,0
2019-01-15T00:27:06.036Z,0
2019-01-15T00:28:06.451Z,0
2019-01-15T00:29:07.175Z,0
2019-01-15T00:30:07.309Z,0
2019-01-15T00:31:08.280Z,0
2019-01-15T00:32:08.415Z,0
2019-01-15T00:33:09.555Z,0
2019-01-15T00:34:10.693Z,0
2019-01-15T00:35:11.661Z,0
2019-01-15T00:36:12.780Z,0
2019-01-15T00:37:12.916Z,0
2019-01-15T00:38:13.668Z,0
2019-01-15T00:39:14.092Z,0
2019-01-15T00:40:14.804Z,0
2019-01-15T00:41:15.777Z,0
2019-01-15T00:42:17.673Z,0
2019-01-15T00:43:19.640Z,0
2019-01-15T00:44:20.333Z,0
2019-01-15T00:45:20.752Z,0
2019-01-15T00:46:21.583Z,0
2019-01-15T00:47:22.281Z,0
2019-01-15T00:48:22.421Z,0
2019-01-15T00:49:24.115Z,0
2019-01-15T00:50:24.253Z,0
2019-01-15T00:51:25.274Z,0
2019-01-15T00:52:25.693Z,0
2019-01-15T00:53:25.831Z,0
2019-01-15T00:54:26.992Z,0
2019-01-15T00:55:27.408Z,0
2019-01-15T00:56:27.973Z,0
2019-01-15T00:57:29.428Z,0
2019-01-15T00:58:29.841Z,0
2019-01-15T00:59:30.538Z,0
2019-01-15T01:00:31.000Z,0
2019-01-15T01:01:32.011Z,0
2019-01-15T01:02:32.426Z,0
2019-01-15T01:03:33.115Z,0
2019-01-15T01:04:33.806Z,0
2019-01-15T01:05:34.219Z,0
2019-01-15T01:06:35.407Z,0
2019-01-15T01:07:35.825Z,0
2019-01-15T01:08:36.243Z,0
2019-01-15T01:09:36.386Z,0
2019-01-15T01:10:38.109Z,0
2019-01-15T01:11:38.244Z,0
2019-01-15T01:12:39.379Z,0
2019-01-15T01:13:41.626Z,0
2019-01-15T01:14:41.050Z,0
2019-01-15T01:15:41.467Z,0
2019-01-15T01:16:42.586Z,0
2019-01-15T01:17:43.284Z,0
2019-01-15T01:18:44.445Z,0
2019-01-15T01:19:45.584Z,0
2019-01-15T01:20:46.996Z,0
2019-01-15T01:21:47.968Z,0
2019-01-15T01:22:48.383Z,0
2019-01-15T01:23:48.796Z,0
2019-01-15T01:24:49.214Z,0
2019-01-15T01:25:49.628Z,0
2019-01-15T01:26:50.449Z,0
2019-01-15T01:27:50.862Z,0
2019-01-15T01:28:51.279Z,0
2019-01-15T01:29:52.692Z,0
2019-01-15T01:30:53.113Z,0
2019-01-15T01:31:53.806Z,0
2019-01-15T01:32:54.219Z,0
2019-01-15T01:33:54.636Z,0
2019-01-15T01:34:55.329Z,0
2019-01-15T01:35:55.742Z,0
2019-01-15T01:36:56.566Z,0
2019-01-15T01:37:56.705Z,0
2019-01-15T01:38:58.394Z,0
2019-01-15T01:39:59.087Z,0
2019-01-15T01:40:59.225Z,0
2019-01-15T01:42:00.651Z,0
2019-01-15T01:43:01.619Z,0
2019-01-15T01:44:02.033Z,0
2019-01-15T01:45:03.322Z,0
2019-01-15T01:46:03.803Z,0
2019-01-15T01:47:04.625Z,0
2019-01-15T01:48:04.775Z,0
2019-01-15T01:49:05.479Z,0
2019-01-15T01:50:05.616Z,0
2019-01-15T01:51:06.308Z,0
2019-01-15T01:52:07.003Z,0
2019-01-15T01:53:07.416Z,0
2019-01-15T01:54:07.831Z,0
2019-01-15T01:55:08.253Z,0
2019-01-15T01:56:08.386Z,0
2019-01-15T01:57:09.227Z,0
2019-01-15T01:58:09.369Z,0
2019-01-15T01:59:10.780Z,0
2019-01-15T02:00:10.923Z,0
2019-01-15T02:01:12.338Z,0
2019-01-15T02:02:13.034Z,0
2019-01-15T02:03:13.447Z,0
2019-01-15T02:04:15.140Z,0
2019-01-15T02:05:15.553Z,0
2019-01-15T02:06:15.692Z,0
2019-01-15T02:07:16.536Z,0
2019-01-15T02:08:16.670Z,0
2019-01-15T02:09:17.086Z,0
2019-01-15T02:10:18.501Z,0
2019-01-15T02:11:18.638Z,0
2019-01-15T02:12:20.609Z,0
2019-01-15T02:13:20.299Z,0
2019-01-15T02:14:20.436Z,0
2019-01-15T02:15:21.576Z,0
2019-01-15T02:16:21.999Z,0
2019-01-15T02:17:22.826Z,0
2019-01-15T02:18:24.240Z,0
2019-01-15T02:19:25.503Z,0
2019-01-15T02:20:25.656Z,0
2019-01-15T02:21:27.348Z,0
2019-01-15T02:22:27.765Z,0
2019-01-15T02:23:28.177Z,0
2019-01-15T02:24:28.601Z,0
2019-01-15T02:25:29.766Z,0
2019-01-15T02:26:31.179Z,0
2019-01-15T02:27:31.726Z,0
2019-01-15T02:28:32.863Z,0
2019-01-15T02:29:34.276Z,0
2019-01-15T02:30:34.735Z,0
2019-01-15T02:31:35.700Z,0
2019-01-15T02:32:36.671Z,0
2019-01-15T02:33:37.085Z,0
2019-01-15T02:34:38.220Z,0
2019-01-15T02:35:39.360Z,0
2019-01-15T02:36:41.054Z,0
2019-01-15T02:37:41.785Z,0
2019-01-15T02:38:41.755Z,0
2019-01-15T02:39:42.172Z,0
2019-01-15T02:40:42.947Z,0
2019-01-15T02:41:43.917Z,0
2019-01-15T02:42:49.283Z,0
2019-01-15T02:43:50.266Z,0
2019-01-15T02:44:50.346Z,0
2019-01-15T02:45:51.315Z,0
2019-01-15T02:46:52.290Z,0
2019-01-15T02:47:52.966Z,0
2019-01-15T02:48:53.733Z,0
2019-01-15T02:49:54.989Z,0
2019-01-15T02:50:55.409Z,0
2019-01-15T02:51:57.098Z,0
2019-01-15T02:52:57.878Z,0
2019-01-15T02:53:59.745Z,0
2019-01-15T02:54:59.437Z,0
2019-01-15T02:56:00.405Z,0
2019-01-15T02:57:00.712Z,0
2019-01-15T02:58:01.543Z,0
2019-01-15T02:59:02.240Z,0
2019-01-15T03:00:03.546Z,0
2019-01-15T03:01:03.558Z,0
2019-01-15T03:02:03.266Z,0
2019-01-15T03:03:03.962Z,0
2019-01-15T03:04:05.206Z,0
2019-01-15T03:05:05.183Z,0
2019-01-15T03:06:06.159Z,0
2019-01-15T03:07:07.427Z,0
2019-01-15T03:08:07.833Z,0
2019-01-15T03:09:08.301Z,0
2019-01-15T03:10:09.551Z,0
2019-01-15T03:11:10.350Z,0
2019-01-15T03:12:10.596Z,0
2019-01-15T03:13:11.012Z,0
2019-01-15T03:14:11.423Z,0
2019-01-15T03:15:13.976Z,0
2019-01-15T03:16:13.665Z,0
2019-01-15T03:17:14.649Z,0
2019-01-15T03:18:14.772Z,0
2019-01-15T03:19:15.185Z,0
2019-01-15T03:20:15.334Z,0
2019-01-15T03:21:15.757Z,0
2019-01-15T03:22:17.448Z,0
2019-01-15T03:23:18.416Z,0
2019-01-15T03:24:19.118Z,0
2019-01-15T03:25:20.643Z,0
2019-01-15T03:26:20.343Z,0
2019-01-15T03:27:20.762Z,0
2019-01-15T03:28:21.621Z,0
2019-01-15T03:29:22.875Z,0
2019-01-15T03:30:23.239Z,0
2019-01-15T03:31:25.248Z,0
2019-01-15T03:32:26.417Z,0
2019-01-15T03:33:26.120Z,0
2019-01-15T03:34:26.825Z,0
2019-01-15T03:35:28.371Z,0
2019-01-15T03:36:28.897Z,0
2019-01-15T03:37:29.590Z,0
2019-01-15T03:38:30.710Z,0
2019-01-15T03:39:31.673Z,0
2019-01-15T03:40:32.648Z,0
2019-01-15T03:41:33.892Z,0
2019-01-15T03:42:34.155Z,0
2019-01-15T03:43:35.146Z,0
2019-01-15T03:44:35.123Z,0
2019-01-15T03:45:36.098Z,0
2019-01-15T03:46:36.507Z,0
2019-01-15T03:47:37.477Z,0
2019-01-15T03:48:38.166Z,0
2019-01-15T03:49:38.581Z,0
2019-01-15T03:50:38.994Z,0
2019-01-15T03:51:39.743Z,0
2019-01-15T03:52:41.156Z,0
2019-01-15T03:53:42.162Z,0
2019-01-15T03:54:42.855Z,0
2019-01-15T03:55:43.548Z,0
2019-01-15T03:56:43.682Z,0
2019-01-15T03:57:45.671Z,0
2019-01-15T03:58:46.049Z,0
2019-01-15T03:59:46.030Z,0
2019-01-15T04:00:46.728Z,0
2019-01-15T04:01:47.153Z,0
2019-01-15T04:02:48.587Z,0
2019-01-15T04:03:49.867Z,0
2019-01-15T04:04:50.430Z,0
2019-01-15T04:05:50.683Z,0
2019-01-15T04:06:51.098Z,0
2019-01-15T04:07:52.345Z,0
2019-01-15T04:08:53.737Z,0
2019-01-15T04:09:53.435Z,0
2019-01-15T04:10:54.399Z,0
2019-01-15T04:11:55.369Z,0
2019-01-15T04:12:55.337Z,0
2019-01-15T04:13:56.632Z,0
2019-01-15T04:14:56.887Z,0
2019-01-15T04:15:57.576Z,0
2019-01-15T04:16:58.546Z,0
2019-01-15T04:18:00.104Z,0
2019-01-15T04:18:59.498Z,0
2019-01-15T04:19:59.920Z,0
2019-01-15T04:21:00.756Z,0
2019-01-15T04:22:01.011Z,0
2019-01-15T04:23:02.529Z,0
2019-01-15T04:24:01.669Z,0
2019-01-15T04:25:03.206Z,0
2019-01-15T04:26:03.176Z,0
2019-01-15T04:27:03.312Z,0
2019-01-15T04:28:05.044Z,0
2019-01-15T04:29:06.157Z,0
2019-01-15T04:30:07.126Z,0
2019-01-15T04:31:07.816Z,0
2019-01-15T04:32:08.235Z,0
2019-01-15T04:33:09.205Z,0
2019-01-15T04:34:09.688Z,0
2019-01-15T04:35:11.548Z,0
2019-01-15T04:36:11.250Z,0
2019-01-15T04:37:11.387Z,0
2019-01-15T04:38:13.366Z,0
2019-01-15T04:39:13.914Z,0
2019-01-15T04:40:14.914Z,0
2019-01-15T04:41:15.883Z,0
2019-01-15T04:42:16.018Z,0
2019-01-15T04:43:22.414Z,0
2019-01-15T04:44:23.663Z,0
2019-01-15T04:45:23.413Z,0
2019-01-15T04:46:24.114Z,0
2019-01-15T04:47:25.084Z,0
2019-01-15T04:48:26.613Z,0
2019-01-15T04:49:26.075Z,0
2019-01-15T04:50:26.485Z,0
2019-01-15T04:51:26.898Z,0
2019-01-15T04:52:28.587Z,0
2019-01-15T04:53:29.552Z,0
2019-01-15T04:54:29.964Z,0
2019-01-15T04:55:30.672Z,0
2019-01-15T04:56:31.636Z,0
2019-01-15T04:57:31.770Z,0
2019-01-15T04:58:33.186Z,0
2019-01-15T04:59:33.455Z,0
2019-01-15T05:00:34.425Z,0
2019-01-15T05:01:34.838Z,0
2019-01-15T05:02:35.528Z,0
2019-01-15T05:03:35.670Z,0
2019-01-15T05:04:37.639Z,0
2019-01-15T05:05:37.051Z,0
2019-01-15T05:06:38.735Z,0
2019-01-15T05:07:39.991Z,0
2019-01-15T05:08:39.695Z,0
2019-01-15T05:09:40.525Z,0
2019-01-15T05:10:41.226Z,0
2019-01-15T05:11:42.205Z,0
2019-01-15T05:12:42.447Z,0
2019-01-15T05:13:43.419Z,0
2019-01-15T05:14:44.119Z,0
2019-01-15T05:15:44.823Z,0
2019-01-15T05:16:44.960Z,0
2019-01-15T05:17:47.419Z,0
2019-01-15T05:18:47.409Z,0
2019-01-15T05:19:47.557Z,0
2019-01-15T05:20:48.812Z,0
2019-01-15T05:21:49.500Z,0
2019-01-15T05:22:50.489Z,0
2019-01-15T05:23:50.468Z,0
2019-01-15T05:24:50.517Z,0
2019-01-15T05:25:52.206Z,0
2019-01-15T05:26:52.667Z,0
2019-01-15T05:27:53.366Z,0
2019-01-15T05:28:54.058Z,0
2019-01-15T05:29:55.803Z,0
2019-01-15T05:30:55.219Z,0
2019-01-15T05:31:56.186Z,0
2019-01-15T05:32:56.879Z,0
2019-01-15T05:33:57.850Z,0
2019-01-15T05:34:58.833Z,0
2019-01-15T05:35:59.107Z,0
2019-01-15T05:37:00.358Z,0
2019-01-15T05:38:00.618Z,0
2019-01-15T05:39:00.308Z,0
2019-01-15T05:40:01.048Z,0
2019-01-15T05:41:02.026Z,0
2019-01-15T05:42:01.815Z,0
2019-01-15T05:43:02.236Z,0
2019-01-15T05:44:02.930Z,0
2019-01-15T05:45:03.676Z,0
2019-01-15T05:46:04.094Z,0
2019-01-15T05:47:04.797Z,0
2019-01-15T05:48:06.051Z,0
2019-01-15T05:49:06.040Z,0
2019-01-15T05:50:07.138Z,0
2019-01-15T05:51:07.105Z,0
2019-01-15T05:52:07.523Z,0
2019-01-15T05:53:07.665Z,0
2019-01-15T05:54:08.700Z,0
2019-01-15T05:55:08.690Z,0
2019-01-15T05:56:11.692Z,0
2019-01-15T05:57:13.937Z,0
2019-01-15T05:58:13.408Z,0
2019-01-15T05:59:13.822Z,0
2019-01-15T06:00:14.647Z,0
2019-01-15T06:01:15.060Z,0
2019-01-15T06:02:15.473Z,0
2019-01-15T06:03:15.889Z,0
2019-01-15T06:04:17.300Z,0
2019-01-15T06:05:17.764Z,0
2019-01-15T06:06:19.289Z,0
2019-01-15T06:07:19.704Z,0
2019-01-15T06:08:19.838Z,0
2019-01-15T06:09:20.807Z,0
2019-01-15T06:10:21.358Z,0
2019-01-15T06:11:22.325Z,0
2019-01-15T06:12:23.292Z,0
2019-01-15T06:13:23.703Z,0
2019-01-15T06:14:24.170Z,0
2019-01-15T06:15:24.601Z,0
2019-01-15T06:16:25.014Z,0
2019-01-15T06:17:26.263Z,0
2019-01-15T06:18:27.000Z,0
2019-01-15T06:19:27.433Z,0
2019-01-15T06:20:28.255Z,0
2019-01-15T06:21:28.390Z,0
2019-01-15T06:22:29.087Z,0
2019-01-15T06:23:29.782Z,0
2019-01-15T06:24:30.742Z,0
2019-01-15T06:25:31.158Z,0
2019-01-15T06:26:32.680Z,0
2019-01-15T06:27:32.925Z,0
2019-01-15T06:28:33.174Z,0
2019-01-15T06:29:33.309Z,0
2019-01-15T06:30:34.709Z,0
2019-01-15T06:31:35.124Z,0
2019-01-15T06:32:36.537Z,0
2019-01-15T06:33:36.677Z,0
2019-01-15T06:34:38.092Z,0
2019-01-15T06:35:39.801Z,0
2019-01-15T06:36:40.508Z,0
2019-01-15T06:37:41.553Z,0
2019-01-15T06:38:41.967Z,0
2019-01-15T06:39:42.376Z,0
2019-01-15T06:40:43.482Z,0
2019-01-15T06:41:43.932Z,0
2019-01-15T06:42:44.350Z,0
2019-01-15T06:43:56.819Z,0
2019-01-15T06:44:57.916Z,0
2019-01-15T06:45:58.622Z,0
2019-01-15T06:46:59.587Z,0
2019-01-15T06:48:00.559Z,0
2019-01-15T06:49:00.975Z,0
2019-01-15T06:50:01.555Z,0
2019-01-15T06:51:03.084Z,0
2019-01-15T06:52:03.055Z,0
2019-01-15T06:53:03.471Z,0
2019-01-15T06:54:03.615Z,0
2019-01-15T06:55:04.772Z,0
2019-01-15T06:56:05.201Z,0
2019-01-15T06:57:06.189Z,0
2019-01-15T06:58:07.435Z,0
2019-01-15T06:59:08.128Z,5.63
2019-01-15T07:00:08.545Z,5.63
2019-01-15T07:01:09.791Z,5.63
2019-01-15T07:02:10.531Z,5.63
2019-01-15T07:03:11.684Z,5.63
2019-01-15T07:04:12.645Z,5.63
2019-01-15T07:05:15.096Z,5.63
2019-01-15T07:06:14.798Z,11.25
2019-01-15T07:07:15.772Z,11.25
2019-01-15T07:08:16.745Z,11.25
2019-01-15T07:09:17.441Z,11.25
2019-01-15T07:10:18.137Z,11.25
2019-01-15T07:11:22.934Z,16.88
2019-01-15T07:11:31.488Z,16.88
2019-01-15T07:12:37.254Z,16.88
2019-01-15T07:12:48.508Z,16.88
2019-01-15T07:13:01.998Z,16.88
2019-01-15T07:13:22.588Z,16.88
2019-01-15T07:14:19.118Z,16.88
2019-01-15T07:15:19.891Z,16.88
2019-01-15T07:16:20.093Z,22.5
2019-01-15T07:17:23.062Z,22.5
2019-01-15T07:18:22.815Z,22.5
2019-01-15T07:19:23.785Z,22.5
2019-01-15T07:20:24.482Z,22.5
2019-01-15T07:21:25.175Z,22.5
2019-01-15T07:22:26.143Z,22.5
2019-01-15T07:23:29.995Z,22.5
2019-01-15T07:24:29.602Z,28.13
2019-01-15T07:25:29.803Z,28.13
2019-01-15T07:26:30.222Z,28.13
2019-01-15T07:27:31.192Z,33.75
2019-01-15T07:28:32.164Z,33.75
2019-01-15T07:29:38.495Z,33.75
2019-01-15T07:29:46.329Z,33.75
2019-01-15T07:30:48.031Z,33.75
2019-01-15T07:31:48.173Z,39.38
2019-01-15T07:32:52.626Z,39.38
2019-01-15T07:33:50.322Z,39.38
2019-01-15T07:34:51.048Z,39.38
2019-01-15T07:35:51.750Z,39.38
2019-01-15T07:36:52.444Z,45
2019-01-15T07:37:52.865Z,45
2019-01-15T07:39:05.580Z,45
2019-01-15T07:40:06.133Z,45
2019-01-15T07:41:06.824Z,45
2019-01-15T07:42:06.961Z,45
2019-01-15T07:43:07.392Z,45
2019-01-15T07:44:08.831Z,45
2019-01-15T07:45:09.807Z,50.63
2019-01-15T07:46:13.294Z,50.63
2019-01-15T07:47:12.478Z,50.63
2019-01-15T07:48:13.454Z,56.25
2019-01-15T07:49:13.876Z,56.25
2019-01-15T07:50:14.783Z,61.88
2019-01-15T07:51:16.198Z,61.88
2019-01-15T07:52:16.491Z,67.5
2019-01-15T07:53:16.924Z,73.13
2019-01-15T07:54:17.646Z,73.13
2019-01-15T07:55:20.612Z,78.75
2019-01-15T07:56:20.044Z,84.38
2019-01-15T07:57:20.462Z,84.38
2019-01-15T07:58:20.880Z,84.38
2019-01-15T07:59:21.878Z,84.38
2019-01-15T08:00:22.829Z,84.38
2019-01-15T08:01:23.525Z,84.38
2019-01-15T08:02:23.666Z,84.38
2019-01-15T08:03:25.178Z,90
2019-01-15T08:04:26.188Z,84.38
2019-01-15T08:05:27.166Z,84.38
2019-01-15T08:06:29.505Z,84.38
2019-01-15T08:07:28.202Z,84.38
2019-01-15T08:08:28.622Z,84.38
2019-01-15T08:09:29.321Z,84.38
2019-01-15T08:10:29.598Z,84.38
2019-01-15T08:11:31.291Z,84.38
2019-01-15T08:12:38.293Z,84.38
2019-01-15T08:12:47.689Z,84.38
2019-01-15T08:13:44.637Z,84.38
2019-01-15T08:14:45.058Z,90
2019-01-15T08:15:45.749Z,90
2019-01-15T08:16:47.223Z,90
2019-01-15T08:17:47.936Z,95.63
2019-01-15T08:18:48.360Z,95.63
2019-01-15T08:19:48.513Z,95.63
2019-01-15T08:20:49.657Z,101.25
2019-01-15T08:21:50.079Z,101.25
2019-01-15T08:22:51.218Z,101.25
2019-01-15T08:23:52.926Z,95.63
2019-01-15T08:24:53.343Z,101.25
2019-01-15T08:25:53.534Z,101.25
2019-01-15T08:26:54.226Z,106.88
2019-01-15T08:27:54.971Z,112.5
2019-01-15T08:28:55.666Z,112.5
2019-01-15T08:29:56.086Z,112.5
2019-01-15T08:30:57.780Z,112.5
2019-01-15T08:31:58.254Z,112.5
2019-01-15T08:33:14.805Z,106.88
2019-01-15T08:34:11.214Z,112.5
2019-01-15T08:35:11.674Z,112.5
2019-01-15T08:36:11.815Z,118.13
2019-01-15T08:37:13.790Z,118.13
2019-01-15T08:38:13.259Z,118.13
2019-01-15T08:39:13.957Z,118.13
2019-01-15T08:40:14.676Z,118.13
2019-01-15T08:41:15.375Z,118.13
2019-01-15T08:42:16.045Z,118.13
2019-01-15T08:43:17.785Z,123.75
2019-01-15T08:44:22.211Z,129.38
2019-01-15T08:44:30.232Z,129.38
2019-01-15T08:45:29.467Z,129.38
2019-01-15T08:46:30.883Z,129.38
2019-01-15T08:47:31.026Z,135
2019-01-15T08:48:32.730Z,135
2019-01-15T08:49:32.871Z,140.63
2019-01-15T08:50:34.013Z,140.63
2019-01-15T08:51:34.493Z,140.63
2019-01-15T08:52:35.517Z,146.25
2019-01-15T08:53:35.936Z,146.25
2019-01-15T08:54:36.910Z,140.63
2019-01-15T08:55:37.186Z,151.88
2019-01-15T08:56:38.713Z,146.25
2019-01-15T08:57:39.414Z,146.25
2019-01-15T08:58:39.834Z,146.25
2019-01-15T08:59:41.263Z,146.25
2019-01-15T09:00:42.867Z,146.25
2019-01-15T09:01:42.352Z,151.88
2019-01-15T09:02:44.067Z,151.88
2019-01-15T09:03:43.762Z,151.88
2019-01-15T09:04:45.190Z,151.88
2019-01-15T09:05:46.018Z,157.5
2019-01-15T09:06:46.715Z,163.13
2019-01-15T09:07:47.425Z,168.75
2019-01-15T09:08:48.454Z,168.75
2019-01-15T09:10:02.571Z,168.75
2019-01-15T09:11:01.712Z,174.38
2019-01-15T09:12:02.451Z,174.38
2019-01-15T09:13:03.200Z,174.38
2019-01-15T09:14:03.764Z,180
2019-01-15T09:15:04.468Z,191.25
2019-01-15T09:16:05.443Z,191.25
2019-01-15T09:17:18.858Z,196.88
2019-01-15T09:18:19.052Z,196.88
2019-01-15T09:19:21.672Z,202.5
2019-01-15T09:20:35.221Z,208.13
2019-01-15T09:21:33.207Z,208.13
2019-01-15T09:22:33.627Z,213.75
2019-01-15T09:23:35.322Z,219.38
2019-01-15T09:24:36.018Z,225
2019-01-15T09:25:37.331Z,230.63
2019-01-15T09:26:37.814Z,236.25
2019-01-15T09:27:38.227Z,236.25
2019-01-15T09:28:38.699Z,241.88
2019-01-15T09:29:40.117Z,241.88
2019-01-15T09:30:43.004Z,236.25
2019-01-15T09:31:42.860Z,241.88
2019-01-15T09:32:44.399Z,236.25
2019-01-15T09:33:44.276Z,247.5
2019-01-15T09:34:45.546Z,270
2019-01-15T09:35:47.215Z,275.63
2019-01-15T09:36:47.244Z,281.25
2019-01-15T09:37:47.676Z,275.63
2019-01-15T09:38:48.148Z,270
2019-01-15T09:39:52.820Z,270
2019-01-15T09:40:03.774Z,270
2019-01-15T09:41:01.607Z,275.63
2019-01-15T09:42:02.977Z,270
2019-01-15T09:43:02.973Z,270
2019-01-15T09:44:04.230Z,264.38
2019-01-15T09:45:04.652Z,270
2019-01-15T09:46:05.903Z,264.38
2019-01-15T09:47:06.603Z,286.88
2019-01-15T09:48:06.745Z,315
2019-01-15T09:49:07.890Z,320.63
2019-01-15T09:50:13.001Z,326.25
2019-01-15T09:51:10.555Z,320.63
2019-01-15T09:52:36.344Z,326.25
2019-01-15T09:53:35.005Z,331.88
2019-01-15T09:54:36.425Z,320.63
2019-01-15T09:55:54.288Z,320.63
2019-01-15T09:56:04.316Z,320.63
2019-01-15T09:57:02.304Z,315
2019-01-15T09:58:17.958Z,320.63
2019-01-15T09:59:15.786Z,315
2019-01-15T10:00:16.210Z,315
2019-01-15T10:01:17.184Z,315
2019-01-15T10:02:18.443Z,320.63
2019-01-15T10:03:17.872Z,331.88
2019-01-15T10:04:25.816Z,343.13
2019-01-15T10:04:34.053Z,343.13
2019-01-15T10:05:31.708Z,348.75
2019-01-15T10:06:32.408Z,343.13
2019-01-15T10:07:33.108Z,343.13
2019-01-15T10:08:34.084Z,337.5
2019-01-15T10:09:40.546Z,337.5
2019-01-15T10:09:47.016Z,337.5
2019-01-15T10:10:49.076Z,331.88
2019-01-15T10:11:48.221Z,331.88
2019-01-15T10:12:49.209Z,331.88
2019-01-15T10:13:49.635Z,331.88
2019-01-15T10:14:50.332Z,331.88
2019-01-15T10:15:50.756Z,331.88
2019-01-15T10:16:51.734Z,337.5
2019-01-15T10:17:52.454Z,337.5
2019-01-15T10:18:53.163Z,348.75
2019-01-15T10:19:53.596Z,320.63
2019-01-15T10:20:54.150Z,354.38
2019-01-15T10:21:54.867Z,360
2019-01-15T10:22:55.285Z,365.63
2019-01-15T10:23:56.708Z,371.25
2019-01-15T10:24:57.968Z,376.88
2019-01-15T10:25:59.058Z,382.5
2019-01-15T10:26:59.755Z,388.13
2019-01-15T10:28:00.229Z,388.13
2019-01-15T10:29:03.210Z,388.13
2019-01-15T10:30:03.139Z,382.5
2019-01-15T10:31:03.410Z,376.88
2019-01-15T10:32:04.108Z,371.25
2019-01-15T10:33:05.095Z,371.25
2019-01-15T10:34:06.343Z,376.88
2019-01-15T10:35:06.358Z,382.5
2019-01-15T10:36:07.239Z,388.13
2019-01-15T10:37:07.452Z,405
2019-01-15T10:38:12.722Z,416.25
2019-01-15T10:39:10.147Z,427.5
2019-01-15T10:40:11.298Z,433.13
2019-01-15T10:41:12.138Z,444.38
2019-01-15T10:42:13.391Z,455.63
2019-01-15T10:43:13.368Z,472.5
2019-01-15T10:44:14.068Z,489.38
2019-01-15T10:45:14.773Z,506.25
2019-01-15T10:46:16.314Z,511.88
2019-01-15T10:47:16.059Z,511.88
2019-01-15T10:48:16.479Z,517.5
2019-01-15T10:49:18.454Z,523.13
2019-01-15T10:50:19.176Z,534.38
2019-01-15T10:51:20.012Z,551.25
2019-01-15T10:52:20.164Z,556.88
2019-01-15T10:53:21.591Z,568.13
2019-01-15T10:54:22.014Z,562.5
2019-01-15T10:55:22.183Z,562.5
2019-01-15T10:56:23.640Z,562.5
2019-01-15T10:57:24.346Z,568.13
2019-01-15T10:58:24.921Z,579.38
2019-01-15T10:59:25.630Z,590.63
2019-01-15T11:00:26.375Z,618.75
2019-01-15T11:01:27.014Z,652.5
2019-01-15T11:02:27.728Z,708.75
2019-01-15T11:03:28.428Z,759.38
2019-01-15T11:04:29.629Z,765
2019-01-15T11:05:29.898Z,759.38
2019-01-15T11:06:31.623Z,748.13
2019-01-15T11:07:32.600Z,675
2019-01-15T11:08:36.528Z,663.75
2019-01-15T11:09:34.956Z,635.63
2019-01-15T11:10:35.659Z,596.25
2019-01-15T11:11:36.496Z,585
2019-01-15T11:12:36.919Z,573.75
2019-01-15T11:13:38.175Z,556.88
2019-01-15T11:14:38.877Z,545.63
2019-01-15T11:15:45.187Z,523.13
2019-01-15T11:15:52.024Z,523.13
2019-01-15T11:16:52.902Z,511.88
2019-01-15T11:17:53.882Z,495
2019-01-15T11:18:54.635Z,483.75
2019-01-15T11:19:55.056Z,461.25
2019-01-15T11:20:56.760Z,444.38
2019-01-15T11:21:57.180Z,433.13
2019-01-15T11:22:58.439Z,421.88
2019-01-15T11:23:58.863Z,416.25
2019-01-15T11:24:59.561Z,410.63
2019-01-15T11:26:00.019Z,410.63
2019-01-15T11:27:00.611Z,416.25
2019-01-15T11:28:01.863Z,421.88
2019-01-15T11:29:02.296Z,427.5
2019-01-15T11:30:03.271Z,438.75
2019-01-15T11:31:10.307Z,461.25
2019-01-15T11:31:21.001Z,461.25
2019-01-15T11:32:17.686Z,472.5
2019-01-15T11:33:22.732Z,483.75
2019-01-15T11:33:30.999Z,483.75
2019-01-15T11:34:48.629Z,495
2019-01-15T11:35:00.085Z,495
2019-01-15T11:35:12.442Z,495
2019-01-15T11:35:26.082Z,495
2019-01-15T11:35:36.931Z,500.63
2019-01-15T11:36:34.838Z,517.5
2019-01-15T11:37:34.405Z,551.25
2019-01-15T11:38:36.118Z,573.75
2019-01-15T11:39:38.001Z,630
2019-01-15T11:40:37.187Z,708.75
2019-01-15T11:41:38.886Z,765
2019-01-15T11:42:39.041Z,793.13
2019-01-15T11:43:45.164Z,821.25
2019-01-15T11:44:41.450Z,832.5
2019-01-15T11:45:43.187Z,849.38
2019-01-15T11:46:56.159Z,821.25
2019-01-15T11:47:56.272Z,815.63
2019-01-15T11:48:56.984Z,843.75
2019-01-15T11:49:57.403Z,860.63
2019-01-15T11:50:58.108Z,883.13
2019-01-15T11:51:58.810Z,900
2019-01-15T11:52:59.033Z,900
2019-01-15T11:53:59.177Z,933.75
2019-01-15T11:55:00.657Z,933.75
2019-01-15T11:56:01.364Z,911.25
2019-01-15T11:57:02.076Z,900
2019-01-15T11:58:03.100Z,922.5
2019-01-15T11:59:17.886Z,990
2019-01-15T12:00:17.473Z,1170
2019-01-15T12:01:17.663Z,1051.88
2019-01-15T12:02:30.069Z,832.5
2019-01-15T12:03:30.585Z,742.5
2019-01-15T12:04:33.951Z,731.25
2019-01-15T12:05:46.667Z,736.88
2019-01-15T12:06:46.387Z,776.25
2019-01-15T12:07:45.781Z,894.38
2019-01-15T12:08:47.211Z,855
2019-01-15T12:09:47.664Z,860.63
2019-01-15T12:10:49.363Z,916.88
2019-01-15T12:11:49.790Z,978.75
2019-01-15T12:12:50.535Z,978.75
2019-01-15T12:13:54.302Z,973.13
2019-01-15T12:14:57.822Z,984.38
2019-01-15T12:15:24.510Z,1012.5
2019-01-15T12:16:09.875Z,1085.63
2019-01-15T12:17:06.951Z,1164.38
2019-01-15T12:18:07.934Z,1125
2019-01-15T12:19:08.084Z,1136.25
2019-01-15T12:20:08.794Z,1389.38
2019-01-15T12:21:10.217Z,2362.5
2019-01-15T12:22:10.922Z,2334.38
2019-01-15T12:23:11.623Z,2626.88
2019-01-15T12:24:11.768Z,3386.25
2019-01-15T12:25:16.716Z,2874.38
2019-01-15T12:26:28.729Z,2013.75
2019-01-15T12:27:26.485Z,1968.75
2019-01-15T12:28:27.183Z,2272.5
2019-01-15T12:29:31.507Z,2469.38
2019-01-15T12:30:29.315Z,2784.38
2019-01-15T12:31:31.241Z,2756.25
2019-01-15T12:32:31.037Z,3296.25
2019-01-15T12:33:33.345Z,2700
2019-01-15T12:34:33.201Z,2520
2019-01-15T12:35:47.412Z,2109.38
2019-01-15T12:36:53.001Z,2233.13
2019-01-15T12:37:02.603Z,2626.88
2019-01-15T12:38:03.619Z,1552.5
2019-01-15T12:39:09.847Z,1749.38
2019-01-15T12:39:21.778Z,1749.38
2019-01-15T12:39:28.722Z,1558.13
2019-01-15T12:40:28.168Z,1676.25
2019-01-15T12:41:29.316Z,1260
2019-01-15T12:42:30.034Z,1333.13
2019-01-15T12:43:31.471Z,1265.63
2019-01-15T12:44:36.008Z,1209.38
2019-01-15T12:45:37.730Z,1006.88
2019-01-15T12:46:35.910Z,939.38
2019-01-15T12:47:35.455Z,843.75
2019-01-15T12:48:36.161Z,815.63
2019-01-15T12:49:37.207Z,821.25
2019-01-15T12:50:38.057Z,826.88
2019-01-15T12:51:38.759Z,804.38
2019-01-15T12:52:39.466Z,826.88
2019-01-15T12:53:39.455Z,770.63
2019-01-15T12:54:40.377Z,742.5
2019-01-15T12:55:55.471Z,725.63
2019-01-15T12:57:10.324Z,708.75
2019-01-15T12:58:21.793Z,720
2019-01-15T12:59:22.179Z,753.75
2019-01-15T13:00:20.199Z,770.63
2019-01-15T13:01:21.291Z,821.25
2019-01-15T13:02:22.786Z,905.63
2019-01-15T13:03:22.510Z,1012.5
2019-01-15T13:04:28.206Z,1248.75
2019-01-15T13:04:38.286Z,1192.5
2019-01-15T13:05:36.230Z,1113.75
2019-01-15T13:06:37.219Z,1068.75
2019-01-15T13:07:36.649Z,1108.13
2019-01-15T13:08:40.075Z,894.38
2019-01-15T13:09:42.338Z,798.75
2019-01-15T13:10:44.986Z,714.38
2019-01-15T13:10:54.459Z,720
2019-01-15T13:11:53.738Z,658.13
2019-01-15T13:12:54.439Z,607.5
2019-01-15T13:13:55.419Z,596.25
2019-01-15T13:14:55.844Z,568.13
2019-01-15T13:15:55.992Z,579.38
2019-01-15T13:16:57.428Z,556.88
2019-01-15T13:17:58.578Z,540
2019-01-15T13:19:00.279Z,500.63
2019-01-15T13:20:07.571Z,466.88
2019-01-15T13:20:13.826Z,466.88
2019-01-15T13:21:13.545Z,478.13
2019-01-15T13:22:14.700Z,489.38
2019-01-15T13:23:15.406Z,517.5
2019-01-15T13:24:15.557Z,528.75
2019-01-15T13:25:18.369Z,540
2019-01-15T13:26:18.790Z,551.25
2019-01-15T13:27:19.943Z,551.25
2019-01-15T13:28:21.372Z,573.75
2019-01-15T13:29:22.078Z,585
2019-01-15T13:30:24.543Z,562.5
2019-01-15T13:31:24.389Z,579.38
2019-01-15T13:32:25.428Z,596.25
2019-01-15T13:33:25.591Z,635.63
2019-01-15T13:34:25.740Z,838.13
2019-01-15T13:35:29.743Z,1951.88
2019-01-15T13:36:44.786Z,860.63